sensor_id;sensor_type;location;lat;lon;timestamp;pressure;altitude;pressure_sealevel;temperature
59339;BMP280;45117;50.960;5.500;2023-03-12T00:02:20;100161.97;;;2.33
59339;BMP280;45117;50.960;5.500;2023-03-12T00:04:47;100159.66;;;2.31
59339;BMP280;45117;50.960;5.500;2023-03-12T00:07:14;100187.47;;;2.60
59339;BMP280;45117;50.960;5.500;2023-03-12T00:09:44;100204.22;;;2.64
59339;BMP280;45117;50.960;5.500;2023-03-12T00:12:10;100181.41;;;2.60
59339;BMP280;45117;50.960;5.500;2023-03-12T00:14:37;100202.38;;;2.68
59339;BMP280;45117;50.960;5.500;2023-03-12T00:17:04;100172.22;;;2.53
59339;BMP280;45117;50.960;5.500;2023-03-12T00:19:30;100191.09;;;2.71
59339;BMP280;45117;50.960;5.500;2023-03-12T00:21:57;100128.97;;;2.26
59339;BMP280;45117;50.960;5.500;2023-03-12T00:24:24;100191.50;;;2.73
59339;BMP280;45117;50.960;5.500;2023-03-12T00:26:52;100167.50;;;2.63
59339;BMP280;45117;50.960;5.500;2023-03-12T00:29:18;100175.13;;;2.68
59339;BMP280;45117;50.960;5.500;2023-03-12T00:31:45;100181.19;;;2.68
59339;BMP280;45117;50.960;5.500;2023-03-12T00:34:12;100118.50;;;2.14
59339;BMP280;45117;50.960;5.500;2023-03-12T00:36:38;100192.09;;;2.63
59339;BMP280;45117;50.960;5.500;2023-03-12T00:39:05;100200.22;;;2.74
59339;BMP280;45117;50.960;5.500;2023-03-12T00:41:32;100150.53;;;2.48
59339;BMP280;45117;50.960;5.500;2023-03-12T00:44:00;100170.13;;;2.63
59339;BMP280;45117;50.960;5.500;2023-03-12T00:46:27;100178.59;;;2.72
59339;BMP280;45117;50.960;5.500;2023-03-12T00:48:54;100184.75;;;2.76
59339;BMP280;45117;50.960;5.500;2023-03-12T00:51:20;100136.97;;;2.49
59339;BMP280;45117;50.960;5.500;2023-03-12T00:53:47;100175.97;;;2.72
59339;BMP280;45117;50.960;5.500;2023-03-12T00:56:14;100185.94;;;2.78
59339;BMP280;45117;50.960;5.500;2023-03-12T00:58:41;100182.16;;;2.79
59339;BMP280;45117;50.960;5.500;2023-03-12T01:01:09;100148.59;;;2.64
59339;BMP280;45117;50.960;5.500;2023-03-12T01:03:36;100153.25;;;2.71
59339;BMP280;45117;50.960;5.500;2023-03-12T01:06:04;100154.00;;;2.71
59339;BMP280;45117;50.960;5.500;2023-03-12T01:08:31;100163.47;;;2.72
59339;BMP280;45117;50.960;5.500;2023-03-12T01:10:58;100163.06;;;2.70
59339;BMP280;45117;50.960;5.500;2023-03-12T01:13:25;100143.09;;;2.53
59339;BMP280;45117;50.960;5.500;2023-03-12T01:15:52;100160.06;;;2.72
59339;BMP280;45117;50.960;5.500;2023-03-12T01:18:20;100153.63;;;2.73
59339;BMP280;45117;50.960;5.500;2023-03-12T01:20:47;100136.50;;;2.67
59339;BMP280;45117;50.960;5.500;2023-03-12T01:23:15;100155.19;;;2.74
59339;BMP280;45117;50.960;5.500;2023-03-12T01:25:41;100155.19;;;2.74
59339;BMP280;45117;50.960;5.500;2023-03-12T01:28:08;100162.78;;;2.75
59339;BMP280;45117;50.960;5.500;2023-03-12T01:30:35;100152.53;;;2.74
59339;BMP280;45117;50.960;5.500;2023-03-12T01:33:01;100132.06;;;2.71
59339;BMP280;45117;50.960;5.500;2023-03-12T01:35:36;100109.78;;;2.52
59339;BMP280;45117;50.960;5.500;2023-03-12T01:38:03;100105.38;;;2.60
59339;BMP280;45117;50.960;5.500;2023-03-12T01:40:32;100134.13;;;2.81
59339;BMP280;45117;50.960;5.500;2023-03-12T01:43:25;100117.38;;;2.77
59339;BMP280;45117;50.960;5.500;2023-03-12T01:46:05;100109.56;;;2.84
59339;BMP280;45117;50.960;5.500;2023-03-12T01:48:35;100121.06;;;2.92
59339;BMP280;45117;50.960;5.500;2023-03-12T01:51:05;100116.06;;;2.87
59339;BMP280;45117;50.960;5.500;2023-03-12T01:53:34;100073.69;;;2.67
59339;BMP280;45117;50.960;5.500;2023-03-12T01:56:01;100114.00;;;2.99
59339;BMP280;45117;50.960;5.500;2023-03-12T01:58:30;100112.44;;;2.98
59339;BMP280;45117;50.960;5.500;2023-03-12T02:00:58;100095.72;;;2.94
59339;BMP280;45117;50.960;5.500;2023-03-12T02:03:25;100110.28;;;3.04
59339;BMP280;45117;50.960;5.500;2023-03-12T02:05:55;100108.38;;;3.04
59339;BMP280;45117;50.960;5.500;2023-03-12T02:08:25;100093.19;;;3.01
59339;BMP280;45117;50.960;5.500;2023-03-12T02:10:51;100091.44;;;3.09
59339;BMP280;45117;50.960;5.500;2023-03-12T02:13:18;100076.53;;;3.01
59339;BMP280;45117;50.960;5.500;2023-03-12T02:15:45;100083.47;;;3.09
59339;BMP280;45117;50.960;5.500;2023-03-12T02:18:15;100069.03;;;3.06
59339;BMP280;45117;50.960;5.500;2023-03-12T02:20:49;100076.81;;;3.19
59339;BMP280;45117;50.960;5.500;2023-03-12T02:23:22;100072.69;;;3.21
59339;BMP280;45117;50.960;5.500;2023-03-12T02:25:54;100063.84;;;3.14
59339;BMP280;45117;50.960;5.500;2023-03-12T02:28:24;100069.75;;;3.30
59339;BMP280;45117;50.960;5.500;2023-03-12T02:30:56;100046.50;;;3.20
59339;BMP280;45117;50.960;5.500;2023-03-12T02:33:24;100066.69;;;3.28
59339;BMP280;45117;50.960;5.500;2023-03-12T02:35:52;100019.66;;;2.95
59339;BMP280;45117;50.960;5.500;2023-03-12T02:38:33;100053.16;;;3.33
59339;BMP280;45117;50.960;5.500;2023-03-12T02:41:05;100058.16;;;3.38
59339;BMP280;45117;50.960;5.500;2023-03-12T02:43:35;100023.72;;;3.15
59339;BMP280;45117;50.960;5.500;2023-03-12T02:46:05;100060.44;;;3.40
59339;BMP280;45117;50.960;5.500;2023-03-12T02:48:32;100040.28;;;3.35
59339;BMP280;45117;50.960;5.500;2023-03-12T02:50:58;100063.13;;;3.43
59339;BMP280;45117;50.960;5.500;2023-03-12T02:53:25;100047.13;;;3.36
59339;BMP280;45117;50.960;5.500;2023-03-12T02:55:52;100045.34;;;3.44
59339;BMP280;45117;50.960;5.500;2023-03-12T02:58:20;100040.09;;;3.47
59339;BMP280;45117;50.960;5.500;2023-03-12T03:00:46;100025.56;;;3.38
59339;BMP280;45117;50.960;5.500;2023-03-12T03:03:13;100048.81;;;3.48
59339;BMP280;45117;50.960;5.500;2023-03-12T03:05:40;100045.03;;;3.52
59339;BMP280;45117;50.960;5.500;2023-03-12T03:08:08;100025.94;;;3.40
59339;BMP280;45117;50.960;5.500;2023-03-12T03:10:35;100046.16;;;3.51
59339;BMP280;45117;50.960;5.500;2023-03-12T03:13:02;99982.44;;;3.14
59339;BMP280;45117;50.960;5.500;2023-03-12T03:15:30;100018.50;;;3.49
59339;BMP280;45117;50.960;5.500;2023-03-12T03:17:56;100025.72;;;3.52
59339;BMP280;45117;50.960;5.500;2023-03-12T03:20:23;100015.00;;;3.41
59339;BMP280;45117;50.960;5.500;2023-03-12T03:22:50;99982.56;;;3.21
59339;BMP280;45117;50.960;5.500;2023-03-12T03:25:17;100023.44;;;3.50
59339;BMP280;45117;50.960;5.500;2023-03-12T03:27:46;99957.41;;;3.12
59339;BMP280;45117;50.960;5.500;2023-03-12T03:30:13;99999.00;;;3.34
59339;BMP280;45117;50.960;5.500;2023-03-12T03:32:42;100007.13;;;3.48
59339;BMP280;45117;50.960;5.500;2023-03-12T03:35:09;100017.81;;;3.55
59339;BMP280;45117;50.960;5.500;2023-03-12T03:37:35;100014.31;;;3.48
59339;BMP280;45117;50.960;5.500;2023-03-12T03:40:03;99976.84;;;3.19
59339;BMP280;45117;50.960;5.500;2023-03-12T03:42:30;100015.78;;;3.42
59339;BMP280;45117;50.960;5.500;2023-03-12T03:44:57;100031.38;;;3.50
59339;BMP280;45117;50.960;5.500;2023-03-12T03:47:23;99988.25;;;3.23
59339;BMP280;45117;50.960;5.500;2023-03-12T03:49:51;100016.41;;;3.35
59339;BMP280;45117;50.960;5.500;2023-03-12T03:52:21;99971.34;;;3.05
59339;BMP280;45117;50.960;5.500;2023-03-12T03:54:47;99964.75;;;2.92
59339;BMP280;45117;50.960;5.500;2023-03-12T03:57:16;99996.81;;;3.13
59339;BMP280;45117;50.960;5.500;2023-03-12T03:59:43;99958.88;;;2.79
59339;BMP280;45117;50.960;5.500;2023-03-12T04:02:09;99972.25;;;2.90
59339;BMP280;45117;50.960;5.500;2023-03-12T04:04:38;99993.25;;;3.02
59339;BMP280;45117;50.960;5.500;2023-03-12T04:07:08;99937.47;;;2.65
59339;BMP280;45117;50.960;5.500;2023-03-12T04:09:35;99954.63;;;2.74
59339;BMP280;45117;50.960;5.500;2023-03-12T04:12:03;100002.63;;;2.96
59339;BMP280;45117;50.960;5.500;2023-03-12T04:14:29;99996.88;;;2.90
59339;BMP280;45117;50.960;5.500;2023-03-12T04:16:56;99942.59;;;2.54
59339;BMP280;45117;50.960;5.500;2023-03-12T04:19:22;99966.31;;;2.73
59339;BMP280;45117;50.960;5.500;2023-03-12T04:21:49;99950.31;;;2.63
59339;BMP280;45117;50.960;5.500;2023-03-12T04:24:17;99981.69;;;2.87
59339;BMP280;45117;50.960;5.500;2023-03-12T04:26:44;99968.69;;;2.78
59339;BMP280;45117;50.960;5.500;2023-03-12T04:29:11;99947.75;;;2.70
59339;BMP280;45117;50.960;5.500;2023-03-12T04:31:37;99946.91;;;2.62
59339;BMP280;45117;50.960;5.500;2023-03-12T04:34:04;99917.06;;;2.42
59339;BMP280;45117;50.960;5.500;2023-03-12T04:36:31;99974.75;;;2.79
59339;BMP280;45117;50.960;5.500;2023-03-12T04:38:57;99950.31;;;2.63
59339;BMP280;45117;50.960;5.500;2023-03-12T04:41:26;99967.88;;;2.74
59339;BMP280;45117;50.960;5.500;2023-03-12T04:43:53;99943.50;;;2.65
59339;BMP280;45117;50.960;5.500;2023-03-12T04:46:19;99951.50;;;2.69
59339;BMP280;45117;50.960;5.500;2023-03-12T04:48:46;99950.44;;;2.73
59339;BMP280;45117;50.960;5.500;2023-03-12T04:51:12;99914.06;;;2.44
59339;BMP280;45117;50.960;5.500;2023-03-12T04:53:39;99969.09;;;2.80
59339;BMP280;45117;50.960;5.500;2023-03-12T04:56:06;99965.75;;;2.84
59339;BMP280;45117;50.960;5.500;2023-03-12T04:58:34;99918.84;;;2.58
59339;BMP280;45117;50.960;5.500;2023-03-12T05:01:01;99961.66;;;2.90
59339;BMP280;45117;50.960;5.500;2023-03-12T05:03:31;99907.22;;;2.66
59339;BMP280;45117;50.960;5.500;2023-03-12T05:05:58;99941.72;;;2.99
59339;BMP280;45117;50.960;5.500;2023-03-12T05:08:24;99940.53;;;2.97
59339;BMP280;45117;50.960;5.500;2023-03-12T05:10:51;99943.00;;;3.09
59339;BMP280;45117;50.960;5.500;2023-03-12T05:13:19;99948.69;;;3.11
59339;BMP280;45117;50.960;5.500;2023-03-12T05:15:50;99935.50;;;3.15
59339;BMP280;45117;50.960;5.500;2023-03-12T05:18:17;99937.44;;;3.18
59339;BMP280;45117;50.960;5.500;2023-03-12T05:20:47;99931.38;;;3.17
59339;BMP280;45117;50.960;5.500;2023-03-12T05:23:22;99938.28;;;3.25
59339;BMP280;45117;50.960;5.500;2023-03-12T05:25:49;99906.97;;;3.04
59339;BMP280;45117;50.960;5.500;2023-03-12T05:28:16;99932.22;;;3.28
59339;BMP280;45117;50.960;5.500;2023-03-12T05:30:44;99928.06;;;3.27
59339;BMP280;45117;50.960;5.500;2023-03-12T05:33:12;99934.88;;;3.28
59339;BMP280;45117;50.960;5.500;2023-03-12T05:35:39;99928.06;;;3.27
59339;BMP280;45117;50.960;5.500;2023-03-12T05:38:08;99923.94;;;3.30
59339;BMP280;45117;50.960;5.500;2023-03-12T05:40:36;99906.84;;;3.27
59339;BMP280;45117;50.960;5.500;2023-03-12T05:43:03;99915.59;;;3.31
59339;BMP280;45117;50.960;5.500;2023-03-12T05:45:29;99909.91;;;3.29
59339;BMP280;45117;50.960;5.500;2023-03-12T05:47:56;99920.19;;;3.35
59339;BMP280;45117;50.960;5.500;2023-03-12T05:50:24;99912.63;;;3.37
59339;BMP280;45117;50.960;5.500;2023-03-12T05:52:53;99901.22;;;3.32
59339;BMP280;45117;50.960;5.500;2023-03-12T05:55:23;99858.56;;;3.08
59339;BMP280;45117;50.960;5.500;2023-03-12T05:57:49;99907.34;;;3.37
59339;BMP280;45117;50.960;5.500;2023-03-12T06:00:17;99871.13;;;3.14
59339;BMP280;45117;50.960;5.500;2023-03-12T06:02:44;99859.22;;;3.01
59339;BMP280;45117;50.960;5.500;2023-03-12T06:05:11;99902.03;;;3.37
59339;BMP280;45117;50.960;5.500;2023-03-12T06:07:39;99924.16;;;3.48
59339;BMP280;45117;50.960;5.500;2023-03-12T06:10:07;99899.69;;;3.31
59339;BMP280;45117;50.960;5.500;2023-03-12T06:12:34;99916.94;;;3.48
59339;BMP280;45117;50.960;5.500;2023-03-12T06:15:00;99913.97;;;3.50
59339;BMP280;45117;50.960;5.500;2023-03-12T06:17:27;99919.63;;;3.52
59339;BMP280;45117;50.960;5.500;2023-03-12T06:19:54;99924.28;;;3.62
59339;BMP280;45117;50.960;5.500;2023-03-12T06:22:20;99904.44;;;3.49
59339;BMP280;45117;50.960;5.500;2023-03-12T06:24:52;99923.97;;;3.67
59339;BMP280;45117;50.960;5.500;2023-03-12T06:27:18;99907.25;;;3.63
59339;BMP280;45117;50.960;5.500;2023-03-12T06:29:45;99922.53;;;3.77
59339;BMP280;45117;50.960;5.500;2023-03-12T06:32:12;99922.91;;;3.79
59339;BMP280;45117;50.960;5.500;2023-03-12T06:34:38;99920.69;;;3.81
59339;BMP280;45117;50.960;5.500;2023-03-12T06:37:05;99906.25;;;3.78
59339;BMP280;45117;50.960;5.500;2023-03-12T06:39:32;99919.25;;;3.91
59339;BMP280;45117;50.960;5.500;2023-03-12T06:42:00;99913.22;;;3.94
59339;BMP280;45117;50.960;5.500;2023-03-12T06:44:26;99917.47;;;4.02
59339;BMP280;45117;50.960;5.500;2023-03-12T06:46:53;99907.97;;;4.01
59339;BMP280;45117;50.960;5.500;2023-03-12T06:49:20;99882.41;;;3.82
59339;BMP280;45117;50.960;5.500;2023-03-12T06:51:46;99900.81;;;4.05
59339;BMP280;45117;50.960;5.500;2023-03-12T06:54:13;99875.31;;;3.93
59339;BMP280;45117;50.960;5.500;2023-03-12T06:56:39;99884.16;;;4.12
59339;BMP280;45117;50.960;5.500;2023-03-12T06:59:08;99853.66;;;3.88
59339;BMP280;45117;50.960;5.500;2023-03-12T07:01:34;99864.75;;;4.00
59339;BMP280;45117;50.960;5.500;2023-03-12T07:04:01;99865.16;;;4.06
59339;BMP280;45117;50.960;5.500;2023-03-12T07:06:28;99896.81;;;4.29
59339;BMP280;45117;50.960;5.500;2023-03-12T07:08:54;99910.88;;;4.33
59339;BMP280;45117;50.960;5.500;2023-03-12T07:11:23;99905.22;;;4.42
59339;BMP280;45117;50.960;5.500;2023-03-12T07:13:50;99856.56;;;4.23
59339;BMP280;45117;50.960;5.500;2023-03-12T07:16:18;99905.34;;;4.56
59339;BMP280;45117;50.960;5.500;2023-03-12T07:18:44;99905.00;;;4.65
59339;BMP280;45117;50.960;5.500;2023-03-12T07:21:11;99873.41;;;4.49
59339;BMP280;45117;50.960;5.500;2023-03-12T07:23:40;99822.00;;;4.20
59339;BMP280;45117;50.960;5.500;2023-03-12T07:26:07;99865.06;;;4.47
59339;BMP280;45117;50.960;5.500;2023-03-12T07:28:34;99849.88;;;4.47
59339;BMP280;45117;50.960;5.500;2023-03-12T07:31:02;99893.66;;;4.75
59339;BMP280;45117;50.960;5.500;2023-03-12T07:33:30;99874.25;;;4.67
59339;BMP280;45117;50.960;5.500;2023-03-12T07:35:57;99833.97;;;4.51
59339;BMP280;45117;50.960;5.500;2023-03-12T07:38:24;99881.53;;;4.77
59339;BMP280;45117;50.960;5.500;2023-03-12T07:40:52;99879.69;;;4.85
59339;BMP280;45117;50.960;5.500;2023-03-12T07:43:20;99916.22;;;5.09
59339;BMP280;45117;50.960;5.500;2023-03-12T07:45:47;99910.56;;;5.18
59339;BMP280;45117;50.960;5.500;2023-03-12T07:48:14;99899.50;;;5.09
59339;BMP280;45117;50.960;5.500;2023-03-12T07:50:42;99866.78;;;4.91
59339;BMP280;45117;50.960;5.500;2023-03-12T07:53:09;99866.41;;;4.96
59339;BMP280;45117;50.960;5.500;2023-03-12T07:55:36;99914.00;;;5.29
59339;BMP280;45117;50.960;5.500;2023-03-12T07:58:03;99926.59;;;5.39
59339;BMP280;45117;50.960;5.500;2023-03-12T08:00:30;99904.53;;;5.35
59339;BMP280;45117;50.960;5.500;2023-03-12T08:02:57;99930.03;;;5.54
59339;BMP280;45117;50.960;5.500;2023-03-12T08:05:26;99894.28;;;5.37
59339;BMP280;45117;50.960;5.500;2023-03-12T08:07:54;99885.16;;;5.42
59339;BMP280;45117;50.960;5.500;2023-03-12T08:10:21;99916.00;;;5.64
59339;BMP280;45117;50.960;5.500;2023-03-12T08:12:48;99917.13;;;5.78
59339;BMP280;45117;50.960;5.500;2023-03-12T08:15:15;99902.31;;;5.66
59339;BMP280;45117;50.960;5.500;2023-03-12T08:17:42;99891.69;;;5.73
59339;BMP280;45117;50.960;5.500;2023-03-12T08:20:09;99927.06;;;6.02
59339;BMP280;45117;50.960;5.500;2023-03-12T08:22:37;99925.13;;;6.06
59339;BMP280;45117;50.960;5.500;2023-03-12T08:25:06;99932.38;;;6.16
59339;BMP280;45117;50.960;5.500;2023-03-12T08:27:34;99851.34;;;5.71
59339;BMP280;45117;50.960;5.500;2023-03-12T08:30:02;99909.53;;;6.08
59339;BMP280;45117;50.960;5.500;2023-03-12T08:32:40;99933.84;;;6.39
59339;BMP280;45117;50.960;5.500;2023-03-12T08:35:08;99932.34;;;6.34
59339;BMP280;45117;50.960;5.500;2023-03-12T08:37:37;99881.38;;;6.11
59339;BMP280;45117;50.960;5.500;2023-03-12T08:40:10;99869.22;;;5.99
59339;BMP280;45117;50.960;5.500;2023-03-12T08:42:38;99897.34;;;6.25
59339;BMP280;45117;50.960;5.500;2023-03-12T08:45:11;99931.94;;;6.54
59339;BMP280;45117;50.960;5.500;2023-03-12T08:47:38;99872.25;;;6.15
59339;BMP280;45117;50.960;5.500;2023-03-12T08:50:10;99884.00;;;6.36
59339;BMP280;45117;50.960;5.500;2023-03-12T08:52:43;99918.97;;;6.59
59339;BMP280;45117;50.960;5.500;2023-03-12T08:55:12;99885.13;;;6.53
59339;BMP280;45117;50.960;5.500;2023-03-12T08:57:39;99899.50;;;6.69
59339;BMP280;45117;50.960;5.500;2023-03-12T09:00:10;99873.31;;;6.54
59339;BMP280;45117;50.960;5.500;2023-03-12T09:03:03;99944.31;;;7.03
59339;BMP280;45117;50.960;5.500;2023-03-12T09:05:32;99956.50;;;7.11
59339;BMP280;45117;50.960;5.500;2023-03-12T09:08:09;99987.63;;;7.46
59339;BMP280;45117;50.960;5.500;2023-03-12T09:10:38;99954.13;;;7.31
59339;BMP280;45117;50.960;5.500;2023-03-12T09:13:05;99933.97;;;7.23
59339;BMP280;45117;50.960;5.500;2023-03-12T09:15:36;99938.50;;;7.26
59339;BMP280;45117;50.960;5.500;2023-03-12T09:18:06;99954.09;;;7.42
59339;BMP280;45117;50.960;5.500;2023-03-12T09:20:33;99957.47;;;7.49
59339;BMP280;45117;50.960;5.500;2023-03-12T09:22:59;99992.34;;;7.83
59339;BMP280;45117;50.960;5.500;2023-03-12T09:25:26;99989.66;;;7.83
59339;BMP280;45117;50.960;5.500;2023-03-12T09:27:57;99949.34;;;7.64
59339;BMP280;45117;50.960;5.500;2023-03-12T09:30:30;99973.59;;;7.87
59339;BMP280;45117;50.960;5.500;2023-03-12T09:32:57;99954.25;;;7.76
59339;BMP280;45117;50.960;5.500;2023-03-12T09:35:30;99915.09;;;7.51
59339;BMP280;45117;50.960;5.500;2023-03-12T09:37:57;99912.75;;;7.61
59339;BMP280;45117;50.960;5.500;2023-03-12T09:40:30;99912.31;;;7.69
59339;BMP280;45117;50.960;5.500;2023-03-12T09:43:02;99905.81;;;7.70
59339;BMP280;45117;50.960;5.500;2023-03-12T09:45:34;99998.88;;;8.27
59339;BMP280;45117;50.960;5.500;2023-03-12T09:48:09;99909.19;;;7.74
59339;BMP280;45117;50.960;5.500;2023-03-12T09:50:45;99958.19;;;8.09
59339;BMP280;45117;50.960;5.500;2023-03-12T09:53:23;99980.50;;;8.33
59339;BMP280;45117;50.960;5.500;2023-03-12T09:55:55;100011.13;;;8.66
59339;BMP280;45117;50.960;5.500;2023-03-12T09:58:31;99957.38;;;8.53
59339;BMP280;45117;50.960;5.500;2023-03-12T10:01:03;99934.06;;;8.54
59339;BMP280;45117;50.960;5.500;2023-03-12T10:04:02;99959.25;;;8.87
59339;BMP280;45117;50.960;5.500;2023-03-12T10:06:51;99974.16;;;8.88
59339;BMP280;45117;50.960;5.500;2023-03-12T10:09:33;99937.09;;;8.56
59339;BMP280;45117;50.960;5.500;2023-03-12T10:12:09;100009.09;;;9.08
59339;BMP280;45117;50.960;5.500;2023-03-12T10:14:51;100026.47;;;9.27
59339;BMP280;45117;50.960;5.500;2023-03-12T10:17:34;99940.34;;;8.71
59339;BMP280;45117;50.960;5.500;2023-03-12T10:20:27;100011.63;;;9.22
59339;BMP280;45117;50.960;5.500;2023-03-12T10:23:02;99975.69;;;9.19
59339;BMP280;45117;50.960;5.500;2023-03-12T10:25:39;99927.50;;;8.92
59339;BMP280;45117;50.960;5.500;2023-03-12T10:28:14;99964.63;;;9.17
59339;BMP280;45117;50.960;5.500;2023-03-12T10:30:48;100002.22;;;9.37
59339;BMP280;45117;50.960;5.500;2023-03-12T10:33:19;99952.66;;;9.25
59339;BMP280;45117;50.960;5.500;2023-03-12T10:35:59;100032.28;;;9.79
59339;BMP280;45117;50.960;5.500;2023-03-12T10:38:28;99946.25;;;9.19
59339;BMP280;45117;50.960;5.500;2023-03-12T10:40:58;99997.25;;;9.66
59339;BMP280;45117;50.960;5.500;2023-03-12T10:43:25;99991.75;;;9.77
59339;BMP280;45117;50.960;5.500;2023-03-12T10:46:02;99953.38;;;9.80
59339;BMP280;45117;50.960;5.500;2023-03-12T10:48:36;99976.28;;;10.08
59339;BMP280;45117;50.960;5.500;2023-03-12T10:51:07;99955.63;;;10.28
59339;BMP280;45117;50.960;5.500;2023-03-12T10:53:40;100001.97;;;11.08
59339;BMP280;45117;50.960;5.500;2023-03-12T10:56:10;99960.66;;;11.55
59339;BMP280;45117;50.960;5.500;2023-03-12T10:58:39;99925.78;;;12.25
59339;BMP280;45117;50.960;5.500;2023-03-12T11:01:20;99931.31;;;12.34
59339;BMP280;45117;50.960;5.500;2023-03-12T11:03:51;100004.28;;;12.65
59339;BMP280;45117;50.960;5.500;2023-03-12T11:06:24;99934.72;;;11.93
59339;BMP280;45117;50.960;5.500;2023-03-12T11:09:05;99933.38;;;11.85
59339;BMP280;45117;50.960;5.500;2023-03-12T11:11:33;99993.91;;;12.51
59339;BMP280;45117;50.960;5.500;2023-03-12T11:14:17;100007.59;;;12.28
59339;BMP280;45117;50.960;5.500;2023-03-12T11:16:50;99935.03;;;11.50
59339;BMP280;45117;50.960;5.500;2023-03-12T11:19:27;99935.28;;;11.39
59339;BMP280;45117;50.960;5.500;2023-03-12T11:21:56;100016.06;;;11.81
59339;BMP280;45117;50.960;5.500;2023-03-12T11:24:25;100014.81;;;11.86
59339;BMP280;45117;50.960;5.500;2023-03-12T11:26:55;99960.63;;;11.38
59339;BMP280;45117;50.960;5.500;2023-03-12T11:29:27;99955.34;;;11.35
59339;BMP280;45117;50.960;5.500;2023-03-12T11:32:01;100018.44;;;11.63
59339;BMP280;45117;50.960;5.500;2023-03-12T11:34:30;99988.50;;;11.44
59339;BMP280;45117;50.960;5.500;2023-03-12T11:37:04;99984.41;;;11.56
59339;BMP280;45117;50.960;5.500;2023-03-12T11:39:40;100005.72;;;11.96
59339;BMP280;45117;50.960;5.500;2023-03-12T11:42:22;100016.09;;;12.26
59339;BMP280;45117;50.960;5.500;2023-03-12T11:45:01;99981.63;;;12.38
59339;BMP280;45117;50.960;5.500;2023-03-12T11:47:44;100015.13;;;12.62
59339;BMP280;45117;50.960;5.500;2023-03-12T11:50:26;99991.16;;;12.38
59339;BMP280;45117;50.960;5.500;2023-03-12T11:53:36;100020.91;;;12.77
59339;BMP280;45117;50.960;5.500;2023-03-12T11:56:16;100001.13;;;13.09
59339;BMP280;45117;50.960;5.500;2023-03-12T11:58:55;99952.69;;;12.67
59339;BMP280;45117;50.960;5.500;2023-03-12T12:01:34;100007.03;;;13.04
59339;BMP280;45117;50.960;5.500;2023-03-12T12:04:44;100008.31;;;12.99
59339;BMP280;45117;50.960;5.500;2023-03-12T12:07:33;99960.34;;;12.81
59339;BMP280;45117;50.960;5.500;2023-03-12T12:10:10;99966.06;;;12.71
59339;BMP280;45117;50.960;5.500;2023-03-12T12:12:48;99974.00;;;12.61
59339;BMP280;45117;50.960;5.500;2023-03-12T12:15:27;99976.94;;;12.67
59339;BMP280;45117;50.960;5.500;2023-03-12T12:18:01;100009.59;;;12.82
59339;BMP280;45117;50.960;5.500;2023-03-12T12:20:43;99934.97;;;12.41
59339;BMP280;45117;50.960;5.500;2023-03-12T12:23:21;100006.69;;;12.89
59339;BMP280;45117;50.960;5.500;2023-03-12T12:26:08;99989.75;;;12.63
59339;BMP280;45117;50.960;5.500;2023-03-12T12:28:59;99955.63;;;12.31
59339;BMP280;45117;50.960;5.500;2023-03-12T12:31:31;99945.38;;;12.26
59339;BMP280;45117;50.960;5.500;2023-03-12T12:34:17;99985.53;;;12.75
59339;BMP280;45117;50.960;5.500;2023-03-12T12:36:53;99920.88;;;12.49
59339;BMP280;45117;50.960;5.500;2023-03-12T12:39:30;99967.47;;;12.88
59339;BMP280;45117;50.960;5.500;2023-03-12T12:42:08;99977.50;;;13.00
59339;BMP280;45117;50.960;5.500;2023-03-12T12:44:42;99955.63;;;12.98
59339;BMP280;45117;50.960;5.500;2023-03-12T12:47:14;99907.44;;;12.75
59339;BMP280;45117;50.960;5.500;2023-03-12T12:49:59;99912.63;;;12.69
59339;BMP280;45117;50.960;5.500;2023-03-12T12:52:43;99943.22;;;12.75
59339;BMP280;45117;50.960;5.500;2023-03-12T12:55:15;99963.66;;;12.60
59339;BMP280;45117;50.960;5.500;2023-03-12T12:57:48;99944.94;;;12.27
59339;BMP280;45117;50.960;5.500;2023-03-12T13:00:39;99970.56;;;12.32
59339;BMP280;45117;50.960;5.500;2023-03-12T13:03:15;99955.19;;;12.32
59339;BMP280;45117;50.960;5.500;2023-03-12T13:05:52;99983.84;;;12.81
59339;BMP280;45117;50.960;5.500;2023-03-12T13:08:56;99940.94;;;12.74
59339;BMP280;45117;50.960;5.500;2023-03-12T13:11:29;99908.22;;;12.62
59339;BMP280;45117;50.960;5.500;2023-03-12T13:14:20;99958.88;;;13.06
59339;BMP280;45117;50.960;5.500;2023-03-12T13:16:47;99955.72;;;12.82
59339;BMP280;45117;50.960;5.500;2023-03-12T13:19:25;99948.72;;;12.72
59339;BMP280;45117;50.960;5.500;2023-03-12T13:22:12;99907.84;;;12.35
59339;BMP280;45117;50.960;5.500;2023-03-12T13:24:47;99951.44;;;12.84
59339;BMP280;45117;50.960;5.500;2023-03-12T13:27:22;99935.03;;;12.79
59339;BMP280;45117;50.960;5.500;2023-03-12T13:29:49;99940.75;;;12.81
59339;BMP280;45117;50.960;5.500;2023-03-12T13:33:05;99966.84;;;12.84
59339;BMP280;45117;50.960;5.500;2023-03-12T13:35:38;99959.28;;;12.91
59339;BMP280;45117;50.960;5.500;2023-03-12T13:38:10;99970.59;;;13.12
59339;BMP280;45117;50.960;5.500;2023-03-12T13:41:12;99949.47;;;13.10
59339;BMP280;45117;50.960;5.500;2023-03-12T13:43:55;99941.81;;;13.21
59339;BMP280;45117;50.960;5.500;2023-03-12T13:46:41;99951.94;;;13.43
59339;BMP280;45117;50.960;5.500;2023-03-12T13:49:12;99917.88;;;13.23
59339;BMP280;45117;50.960;5.500;2023-03-12T13:51:54;99946.38;;;13.59
59339;BMP280;45117;50.960;5.500;2023-03-12T13:54:26;99919.09;;;13.57
59339;BMP280;45117;50.960;5.500;2023-03-12T13:56:57;99894.28;;;13.15
59339;BMP280;45117;50.960;5.500;2023-03-12T13:59:33;99919.81;;;13.23
59339;BMP280;45117;50.960;5.500;2023-03-12T14:02:07;99885.47;;;13.02
59339;BMP280;45117;50.960;5.500;2023-03-12T14:04:51;99892.72;;;12.92
59339;BMP280;45117;50.960;5.500;2023-03-12T14:07:36;99929.63;;;13.30
59339;BMP280;45117;50.960;5.500;2023-03-12T14:10:13;99911.00;;;13.10
59339;BMP280;45117;50.960;5.500;2023-03-12T14:12:53;99892.94;;;12.85
59339;BMP280;45117;50.960;5.500;2023-03-12T14:15:28;99927.44;;;13.37
59339;BMP280;45117;50.960;5.500;2023-03-12T14:18:00;99921.59;;;13.04
59339;BMP280;45117;50.960;5.500;2023-03-12T14:20:28;99896.91;;;12.68
59339;BMP280;45117;50.960;5.500;2023-03-12T14:22:58;99929.53;;;12.82
59339;BMP280;45117;50.960;5.500;2023-03-12T14:25:38;99924.16;;;12.70
59339;BMP280;45117;50.960;5.500;2023-03-12T14:28:19;99938.59;;;12.88
59339;BMP280;45117;50.960;5.500;2023-03-12T14:30:50;99979.88;;;12.98
59339;BMP280;45117;50.960;5.500;2023-03-12T14:33:21;99954.31;;;12.64
59339;BMP280;45117;50.960;5.500;2023-03-12T14:35:51;99958.00;;;12.71
59339;BMP280;45117;50.960;5.500;2023-03-12T14:38:44;99945.47;;;12.51